Time;durP1;ratioP1;P1;durP2;ratioP2;P2;SDS_P1;SDS_P2;PMS_P1;PMS_P2;Temp;Humidity;BMP_temperature;BMP_pressure;BME280_temperature;BME280_humidity;BME280_pressure;Samples;Min_cycle;Max_cycle;Signal;HPM_P1;HPM_P2
2021/10/25 00:01:56;;;;;;;22.67;18.83;;;6.70;99.90;;;;;;5073203;28;20035;-70
2021/10/25 00:04:22;;;;;;;22.27;17.92;;;6.70;99.90;;;;;;5086674;28;20673;-70
2021/10/25 00:06:48;;;;;;;20.70;18.25;;;6.70;99.90;;;;;;5088221;28;20456;-70
2021/10/25 00:09:14;;;;;;;24.85;19.38;;;6.70;99.90;;;;;;5088269;28;20044;-70
2021/10/25 00:11:40;;;;;;;23.23;17.85;;;6.70;99.90;;;;;;5088579;28;20044;-70
2021/10/25 00:14:06;;;;;;;22.00;19.33;;;6.70;99.90;;;;;;5101910;28;20047;-70
2021/10/25 00:16:32;;;;;;;21.05;18.55;;;6.70;99.90;;;;;;5106617;28;20061;-70
2021/10/25 00:19:01;;;;;;;24.60;19.98;;;6.70;99.90;;;;;;5105640;28;20047;-70
2021/10/25 00:21:30;;;;;;;22.77;20.30;;;6.60;99.90;;;;;;5105971;28;20405;-71
2021/10/25 00:23:56;;;;;;;22.85;17.92;;;6.70;99.90;;;;;;5088184;28;20066;-71
2021/10/25 00:26:22;;;;;;;21.33;17.67;;;6.60;99.90;;;;;;5106802;28;20043;-70
2021/10/25 00:28:47;;;;;;;21.30;18.00;;;6.60;99.90;;;;;;5089392;28;20102;-71
2021/10/25 00:31:14;;;;;;;25.93;19.80;;;6.60;99.90;;;;;;5106550;28;20062;-70
2021/10/25 00:33:39;;;;;;;21.27;17.45;;;6.50;99.90;;;;;;5090147;28;20510;-70
2021/10/25 00:36:05;;;;;;;20.80;18.40;;;6.50;99.90;;;;;;5105867;28;20035;-71
2021/10/25 00:38:31;;;;;;;24.45;19.48;;;6.50;99.90;;;;;;5072775;28;20052;-71
2021/10/25 00:40:57;;;;;;;24.00;18.58;;;6.50;99.90;;;;;;5088268;28;20047;-70
2021/10/25 00:43:23;;;;;;;23.70;18.70;;;6.40;99.90;;;;;;5102281;28;20057;-70
2021/10/25 00:45:49;;;;;;;22.77;19.20;;;6.40;99.90;;;;;;5088490;28;20135;-71
2021/10/25 00:48:15;;;;;;;22.45;20.05;;;6.40;99.90;;;;;;5089572;28;22194;-70
2021/10/25 00:50:41;;;;;;;22.60;19.17;;;6.40;99.90;;;;;;5106272;28;20042;-70
2021/10/25 00:53:09;;;;;;;24.10;20.67;;;6.40;99.90;;;;;;5088950;28;20063;-71
2021/10/25 00:55:39;;;;;;;23.25;18.80;;;6.30;99.90;;;;;;5067317;28;20105;-70
2021/10/25 00:58:05;;;;;;;20.55;17.85;;;6.30;99.90;;;;;;5048389;28;20050;-71
2021/10/25 01:00:32;;;;;;;22.17;19.33;;;6.30;99.90;;;;;;5067002;28;20048;-71
2021/10/25 01:02:58;;;;;;;24.95;21.10;;;6.30;99.90;;;;;;5050030;28;20042;-71
2021/10/25 01:05:25;;;;;;;25.70;22.38;;;6.30;99.90;;;;;;5082835;28;20105;-71
2021/10/25 01:07:52;;;;;;;25.35;21.90;;;6.30;99.90;;;;;;5067116;28;20587;-71
2021/10/25 01:10:18;;;;;;;23.27;20.30;;;6.20;99.90;;;;;;5083917;28;20511;-71
2021/10/25 01:12:45;;;;;;;24.48;21.88;;;6.30;99.90;;;;;;5082867;28;20047;-71
2021/10/25 01:15:10;;;;;;;24.92;21.92;;;6.30;99.90;;;;;;5067718;28;20502;-70
2021/10/25 01:17:36;;;;;;;22.55;20.08;;;6.20;99.90;;;;;;5084532;28;20089;-70
2021/10/25 01:20:04;;;;;;;26.92;22.23;;;6.20;99.90;;;;;;5050562;28;20617;-70
2021/10/25 01:22:30;;;;;;;25.75;20.85;;;6.20;99.90;;;;;;5050340;28;20043;-70
2021/10/25 01:24:56;;;;;;;23.60;20.87;;;6.20;99.90;;;;;;5067094;28;20040;-71
2021/10/25 01:27:22;;;;;;;25.27;21.35;;;6.10;99.90;;;;;;5081809;28;20146;-71
2021/10/25 01:29:48;;;;;;;25.25;22.52;;;6.10;99.90;;;;;;5080904;28;20081;-71
2021/10/25 01:32:15;;;;;;;25.63;21.88;;;6.10;99.90;;;;;;5087011;28;20036;-70
2021/10/25 01:34:41;;;;;;;25.27;22.57;;;6.10;99.90;;;;;;5104504;28;20031;-71
2021/10/25 01:37:08;;;;;;;26.88;23.05;;;6.20;99.90;;;;;;5086971;28;20058;-71
2021/10/25 01:39:35;;;;;;;26.98;22.33;;;6.20;99.90;;;;;;5070055;28;20031;-71
2021/10/25 01:42:01;;;;;;;21.08;18.90;;;6.20;99.90;;;;;;5103866;28;20402;-70
2021/10/25 01:44:27;;;;;;;27.65;23.40;;;6.20;99.90;;;;;;5102457;28;20047;-70
2021/10/25 01:46:53;;;;;;;25.57;22.13;;;6.10;99.90;;;;;;5069656;28;20542;-71
2021/10/25 01:49:19;;;;;;;30.23;23.87;;;6.20;99.90;;;;;;5087042;28;20083;-70
2021/10/25 01:51:44;;;;;;;27.37;24.10;;;6.20;99.90;;;;;;5051629;28;20032;-69
2021/10/25 01:54:11;;;;;;;26.27;23.27;;;6.10;99.90;;;;;;5087378;28;20040;-71
2021/10/25 01:56:37;;;;;;;28.73;22.43;;;6.10;99.90;;;;;;5086677;28;20066;-70
2021/10/25 01:59:06;;;;;;;29.27;26.17;;;6.10;99.90;;;;;;5104116;28;20577;-70
2021/10/25 02:01:33;;;;;;;25.70;20.70;;;6.10;99.90;;;;;;5099195;28;20417;-72
2021/10/25 02:03:59;;;;;;;26.33;22.10;;;6.10;99.90;;;;;;5071697;28;20493;-71
2021/10/25 02:06:24;;;;;;;23.50;19.60;;;6.10;99.90;;;;;;5139681;27;20051;-70
2021/10/25 02:08:50;;;;;;;27.60;22.80;;;6.10;99.90;;;;;;5110328;28;20031;-70
2021/10/25 02:11:17;;;;;;;26.23;23.53;;;6.00;99.90;;;;;;5145053;27;20070;-70
2021/10/25 02:13:43;;;;;;;32.05;24.70;;;6.10;99.90;;;;;;5109058;28;20035;-70
2021/10/25 02:16:11;;;;;;;29.30;23.27;;;6.10;99.90;;;;;;5110341;28;20123;-71
2021/10/25 02:18:37;;;;;;;28.83;24.38;;;6.10;99.90;;;;;;5097513;28;20135;-70
2021/10/25 02:21:03;;;;;;;30.13;25.38;;;6.10;99.90;;;;;;5109731;28;20603;-70
2021/10/25 02:23:29;;;;;;;26.42;21.50;;;6.10;99.90;;;;;;5105498;28;20043;-70
2021/10/25 02:25:55;;;;;;;31.70;24.50;;;6.10;99.90;;;;;;5073039;28;20051;-71
2021/10/25 02:28:21;;;;;;;27.70;24.10;;;6.20;99.90;;;;;;5085783;27;20051;-71
2021/10/25 02:30:48;;;;;;;24.40;21.77;;;6.10;99.90;;;;;;5096379;27;20047;-70
2021/10/25 02:33:14;;;;;;;25.73;22.60;;;6.10;99.90;;;;;;5097006;27;20229;-70
2021/10/25 02:35:41;;;;;;;32.93;25.83;;;6.10;99.90;;;;;;5113909;27;20043;-70
2021/10/25 02:38:07;;;;;;;25.50;21.70;;;6.00;99.90;;;;;;5079905;27;20505;-71
2021/10/25 02:40:33;;;;;;;32.00;26.33;;;6.00;99.90;;;;;;5079576;27;20043;-70
2021/10/25 02:43:00;;;;;;;31.20;25.03;;;6.00;99.90;;;;;;5106255;28;20451;-71
2021/10/25 02:45:26;;;;;;;28.03;23.13;;;6.00;99.90;;;;;;5094029;28;20044;-71
2021/10/25 02:47:52;;;;;;;26.70;23.40;;;6.00;99.90;;;;;;5127330;27;20398;-70
2021/10/25 02:50:19;;;;;;;28.93;24.47;;;6.00;99.90;;;;;;5101829;27;20114;-71
2021/10/25 02:52:45;;;;;;;24.33;21.80;;;6.00;99.90;;;;;;5113745;27;20046;-72
2021/10/25 02:55:11;;;;;;;32.07;26.43;;;6.10;99.90;;;;;;5114487;27;20371;-71
2021/10/25 02:57:38;;;;;;;30.27;25.03;;;6.10;99.90;;;;;;5114382;27;20043;-71
2021/10/25 03:00:06;;;;;;;30.27;26.63;;;6.00;99.90;;;;;;5112701;27;20433;-70
2021/10/25 03:02:32;;;;;;;34.03;28.20;;;6.10;99.90;;;;;;5076370;28;20494;-70
2021/10/25 03:04:58;;;;;;;26.40;23.63;;;6.10;99.90;;;;;;5107880;27;20050;-70
2021/10/25 03:07:24;;;;;;;27.77;24.73;;;6.10;99.90;;;;;;5114509;27;20046;-71
2021/10/25 03:09:50;;;;;;;29.20;25.58;;;6.10;99.90;;;;;;5131219;27;20035;-71
2021/10/25 03:12:16;;;;;;;28.50;23.83;;;6.10;99.90;;;;;;5129944;27;20047;-71
2021/10/25 03:14:43;;;;;;;29.92;24.08;;;6.10;99.90;;;;;;5076430;28;20051;-72
2021/10/25 03:17:09;;;;;;;29.67;25.10;;;6.10;99.90;;;;;;5127269;27;20039;-71
2021/10/25 03:19:37;;;;;;;32.53;25.95;;;6.10;99.90;;;;;;5093525;27;20049;-71
2021/10/25 03:22:05;;;;;;;31.42;26.45;;;6.10;99.90;;;;;;5110798;27;20043;-70
2021/10/25 03:24:34;;;;;;;31.60;26.40;;;6.10;99.90;;;;;;5147576;27;20051;-71
2021/10/25 03:27:01;;;;;;;31.75;26.63;;;6.00;99.90;;;;;;5147290;27;20039;-71
2021/10/25 03:29:30;;;;;;;27.55;24.65;;;6.00;99.90;;;;;;5095616;27;20083;-71
2021/10/25 03:31:56;;;;;;;29.57;26.07;;;6.00;99.90;;;;;;5095135;27;20054;-70
2021/10/25 03:34:22;;;;;;;27.42;24.45;;;6.00;99.90;;;;;;5095972;27;20047;-71
2021/10/25 03:36:49;;;;;;;28.50;23.88;;;6.00;99.90;;;;;;5112018;27;20054;-71
2021/10/25 03:39:19;;;;;;;30.23;25.07;;;6.00;99.90;;;;;;5112179;27;20043;-71
2021/10/25 03:41:47;;;;;;;30.58;27.33;;;6.00;99.90;;;;;;5112325;27;20043;-71
2021/10/25 03:44:22;;;;;;;30.83;27.40;;;6.00;99.90;;;;;;5095134;28;20051;-71
2021/10/25 03:47:00;;;;;;;26.93;23.30;;;6.10;99.90;;;;;;5076220;28;20059;-71
2021/10/25 03:51:54;;;;;;;28.38;25.20;;;6.00;99.90;;;;;;5111879;27;20557;-72
2021/10/25 03:57:30;;;;;;;28.17;23.70;;;6.00;99.90;;;;;;5104712;28;20055;-71
2021/10/25 03:59:58;;;;;;;28.23;25.27;;;6.00;99.90;;;;;;5094634;28;20051;-70
2021/10/25 04:29:32;;;;;;;28.98;25.42;;;6.10;99.90;;;;;;5114900;27;20043;-71
2021/10/25 04:31:58;;;;;;;28.33;24.50;;;6.10;99.90;;;;;;5111620;27;20032;-72
2021/10/25 04:34:24;;;;;;;28.85;24.42;;;6.10;99.90;;;;;;5130310;27;20547;-72
2021/10/25 04:36:50;;;;;;;28.25;25.25;;;6.20;99.90;;;;;;5129868;27;20039;-72
2021/10/25 04:39:16;;;;;;;29.70;24.30;;;6.20;99.90;;;;;;5111372;27;20661;-72
2021/10/25 04:41:42;;;;;;;27.57;23.17;;;6.30;99.90;;;;;;5111315;27;20117;-72
2021/10/25 04:44:08;;;;;;;26.17;23.40;;;6.30;99.90;;;;;;5093389;27;20049;-72
2021/10/25 04:46:34;;;;;;;27.60;22.17;;;6.30;99.90;;;;;;5116524;27;20047;-71
2021/10/25 04:49:00;;;;;;;29.30;23.90;;;6.40;99.90;;;;;;5082236;27;20051;-72
2021/10/25 04:51:25;;;;;;;29.17;24.17;;;6.40;99.90;;;;;;5086712;27;20401;-72
2021/10/25 04:53:51;;;;;;;26.87;24.17;;;6.40;99.90;;;;;;5121346;27;20231;-72
2021/10/25 04:56:17;;;;;;;27.63;24.63;;;6.50;99.90;;;;;;5118141;27;20096;-71
2021/10/25 04:58:43;;;;;;;26.23;23.20;;;6.50;99.90;;;;;;5136800;27;20047;-71
2021/10/25 05:01:09;;;;;;;27.52;24.55;;;6.50;99.90;;;;;;5124268;27;20412;-70
2021/10/25 05:03:36;;;;;;;26.25;22.92;;;6.60;99.90;;;;;;5105685;27;20089;-70
2021/10/25 05:06:07;;;;;;;25.33;22.53;;;6.60;99.90;;;;;;5110126;27;20063;-70
2021/10/25 05:08:33;;;;;;;24.85;22.08;;;6.60;99.90;;;;;;5142569;27;20122;-70
2021/10/25 05:10:58;;;;;;;27.50;24.08;;;6.60;99.90;;;;;;5110363;27;20126;-70
2021/10/25 05:13:24;;;;;;;26.67;23.87;;;6.70;99.90;;;;;;5076135;27;20054;-70
2021/10/25 05:15:50;;;;;;;24.60;22.02;;;6.70;99.90;;;;;;5075463;27;20046;-70
2021/10/25 05:18:16;;;;;;;24.70;21.90;;;6.80;99.90;;;;;;5092920;27;20043;-70
2021/10/25 05:20:41;;;;;;;26.98;21.38;;;6.80;99.90;;;;;;5109768;27;20572;-70
2021/10/25 05:23:10;;;;;;;26.63;23.05;;;6.80;99.90;;;;;;5107667;28;20489;-70
2021/10/25 05:25:36;;;;;;;24.30;21.70;;;6.80;99.90;;;;;;5056732;28;20082;-70
2021/10/25 05:28:02;;;;;;;23.07;20.57;;;6.90;99.90;;;;;;5103991;27;20270;-70
2021/10/25 05:30:28;;;;;;;26.80;22.50;;;6.90;99.90;;;;;;5099700;28;20055;-70
2021/10/25 05:32:54;;;;;;;28.75;22.20;;;6.90;99.90;;;;;;5134774;27;20050;-71
2021/10/25 05:35:20;;;;;;;27.13;20.77;;;7.00;99.90;;;;;;5102127;28;20108;-70
2021/10/25 05:37:45;;;;;;;29.13;20.92;;;7.00;99.90;;;;;;5089316;28;20384;-71
2021/10/25 05:40:11;;;;;;;32.88;22.88;;;7.00;99.90;;;;;;5089246;28;20423;-70
2021/10/25 05:42:37;;;;;;;24.80;21.08;;;7.00;99.90;;;;;;5091224;28;20051;-71
2021/10/25 05:45:04;;;;;;;25.35;22.27;;;7.10;99.90;;;;;;5108362;28;20104;-70
2021/10/25 05:47:30;;;;;;;24.42;21.80;;;7.10;99.90;;;;;;5106957;28;20046;-71
2021/10/25 05:49:56;;;;;;;25.05;20.83;;;7.20;99.90;;;;;;5107833;28;20039;-71
2021/10/25 05:52:21;;;;;;;25.90;21.40;;;7.20;99.90;;;;;;5074369;28;20070;-72
2021/10/25 05:54:49;;;;;;;25.95;21.85;;;7.20;99.90;;;;;;5108805;28;20043;-71
2021/10/25 05:57:16;;;;;;;26.10;21.58;;;7.20;99.90;;;;;;5088383;28;20040;-71
2021/10/25 05:59:42;;;;;;;25.67;20.25;;;7.20;99.90;;;;;;5084567;28;20106;-71
2021/10/25 06:02:24;;;;;;;25.50;20.77;;;7.30;99.90;;;;;;5078889;28;20092;-72
2021/10/25 06:04:50;;;;;;;23.15;20.67;;;7.20;99.90;;;;;;5101363;28;20048;-72
2021/10/25 06:07:16;;;;;;;21.67;19.45;;;7.30;99.90;;;;;;5104821;28;20451;-72
2021/10/25 06:09:44;;;;;;;28.10;22.70;;;7.30;99.90;;;;;;5104809;28;20478;-72
2021/10/25 06:12:17;;;;;;;24.35;21.60;;;7.30;99.90;;;;;;5098764;28;20052;-72
2021/10/25 06:14:45;;;;;;;23.65;21.13;;;7.40;99.90;;;;;;5082297;28;20077;-72
2021/10/25 06:17:39;;;;;;;25.70;21.38;;;7.40;99.90;;;;;;5100491;28;20036;-72
2021/10/25 06:20:10;;;;;;;23.70;20.08;;;7.40;99.90;;;;;;5085883;28;20465;-72
2021/10/25 06:22:38;;;;;;;27.30;22.45;;;7.40;99.90;;;;;;5098864;28;20089;-72
2021/10/25 06:25:06;;;;;;;22.90;20.42;;;7.40;99.90;;;;;;5100312;28;20102;-72
2021/10/25 06:27:35;;;;;;;27.05;22.10;;;7.40;99.90;;;;;;5100423;28;20065;-72
2021/10/25 06:30:04;;;;;;;24.23;21.55;;;7.50;99.90;;;;;;5128321;27;20146;-71
2021/10/25 06:32:30;;;;;;;21.85;19.55;;;7.50;99.90;;;;;;5101564;28;20486;-72
2021/10/25 06:34:58;;;;;;;27.73;20.83;;;7.50;99.90;;;;;;5071067;28;20116;-71
2021/10/25 06:37:31;;;;;;;25.02;20.92;;;7.50;99.90;;;;;;5102165;28;20039;-72
2021/10/25 06:39:58;;;;;;;23.50;20.20;;;7.50;99.90;;;;;;5106105;28;20043;-72
2021/10/25 06:42:26;;;;;;;24.65;21.85;;;7.50;99.90;;;;;;5090675;28;20039;-72
2021/10/25 06:44:56;;;;;;;23.85;20.67;;;7.50;99.90;;;;;;5108681;28;20048;-72
2021/10/25 06:47:23;;;;;;;24.52;19.80;;;7.60;99.90;;;;;;5111122;28;20111;-72
2021/10/25 06:49:49;;;;;;;24.85;20.50;;;7.60;99.90;;;;;;5109303;28;20077;-72
2021/10/25 06:52:15;;;;;;;22.67;19.10;;;7.60;99.90;;;;;;5110475;28;20049;-72
2021/10/25 06:54:41;;;;;;;22.63;20.23;;;7.60;99.90;;;;;;5109938;28;20618;-72
2021/10/25 06:57:07;;;;;;;24.48;20.15;;;7.70;99.90;;;;;;5105791;28;20043;-72
2021/10/25 06:59:32;;;;;;;24.10;21.50;;;7.70;99.90;;;;;;5108575;27;20406;-71
2021/10/25 07:01:58;;;;;;;23.25;20.00;;;7.70;99.90;;;;;;5091276;27;20491;-71
2021/10/25 07:04:24;;;;;;;22.83;20.50;;;7.70;99.90;;;;;;5108976;27;20359;-71
2021/10/25 07:06:52;;;;;;;23.38;20.60;;;7.80;99.90;;;;;;5109262;27;20039;-72
2021/10/25 07:09:19;;;;;;;25.33;21.38;;;7.80;99.90;;;;;;5107484;27;20050;-71
2021/10/25 07:11:45;;;;;;;23.13;20.45;;;7.80;99.90;;;;;;5102376;27;20047;-71
2021/10/25 07:14:13;;;;;;;24.35;20.00;;;7.80;99.90;;;;;;5087452;27;20070;-71
2021/10/25 08:10:30;;;;;;;32.08;25.20;;;8.40;99.90;;;;;;5107951;27;20047;-70
2021/10/25 08:12:58;;;;;;;31.60;26.13;;;8.50;99.90;;;;;;5110492;27;20544;-70
2021/10/25 08:15:34;;;;;;;28.30;24.17;;;8.50;99.90;;;;;;5094159;27;20050;-70
2021/10/25 08:18:02;;;;;;;33.75;24.90;;;8.60;99.90;;;;;;5107988;27;21579;-71
2021/10/25 08:20:28;;;;;;;31.65;25.27;;;8.60;99.90;;;;;;5073475;27;20050;-71
2021/10/25 08:22:54;;;;;;;29.67;25.30;;;8.60;99.90;;;;;;5107905;27;20065;-71
2021/10/25 08:25:21;;;;;;;32.63;26.08;;;8.60;99.90;;;;;;5075758;27;20110;-71
2021/10/25 08:27:47;;;;;;;39.17;29.00;;;8.60;99.90;;;;;;5076604;27;20663;-71
2021/10/25 08:30:20;;;;;;;40.08;30.30;;;8.70;99.90;;;;;;5092074;27;20081;-71
2021/10/25 08:33:04;;;;;;;32.13;26.58;;;8.70;99.90;;;;;;5059090;27;20547;-71
2021/10/25 08:40:58;;;;;;;35.97;29.15;;;8.80;99.90;;;;;;5107936;27;20541;-71
2021/10/25 08:43:24;;;;;;;38.13;27.42;;;8.90;99.90;;;;;;5057853;27;20051;-71
2021/10/25 08:45:55;;;;;;;40.90;29.50;;;8.90;99.90;;;;;;5070178;27;20045;-71
2021/10/25 08:48:21;;;;;;;;;;;8.80;99.90;;;;;;5101781;27;20054;-71
2021/10/25 08:50:47;;;;;;;41.50;31.40;;;9.00;99.90;;;;;;5101508;27;20504;-71
2021/10/25 08:53:14;;;;;;;35.20;27.67;;;9.00;99.90;;;;;;5119080;27;20039;-71
2021/10/25 08:55:40;;;;;;;39.05;29.67;;;9.00;99.90;;;;;;5104206;27;20051;-71
2021/10/25 08:58:10;;;;;;;36.55;28.20;;;9.00;99.90;;;;;;5100461;27;20050;-71
2021/10/25 09:00:39;;;;;;;32.35;27.02;;;9.10;99.90;;;;;;5072567;27;20065;-71
2021/10/25 09:03:07;;;;;;;32.78;26.25;;;9.10;99.90;;;;;;5115553;27;20039;-72
2021/10/25 09:05:35;;;;;;;39.75;27.35;;;9.20;99.90;;;;;;5084691;27;20059;-72
2021/10/25 09:08:10;;;;;;;41.28;31.98;;;9.20;99.90;;;;;;5108655;27;20050;-72
2021/10/25 09:10:39;;;;;;;39.78;29.50;;;9.30;99.90;;;;;;5072996;27;20050;-72
2021/10/25 09:13:08;;;;;;;51.25;34.90;;;9.30;99.90;;;;;;5092445;27;20516;-72
2021/10/25 09:15:40;;;;;;;37.57;30.07;;;9.40;99.90;;;;;;5109802;27;20490;-72
2021/10/25 09:18:13;;;;;;;42.35;29.85;;;9.40;99.90;;;;;;5092584;27;20075;-72
2021/10/25 09:20:58;;;;;;;37.22;28.80;;;9.50;99.90;;;;;;5109615;27;20481;-72
2021/10/25 09:23:38;;;;;;;44.20;28.98;;;9.50;99.90;;;;;;5090732;28;20511;-72
2021/10/25 09:26:08;;;;;;;46.83;33.05;;;9.50;99.90;;;;;;5087831;27;20032;-72
2021/10/25 09:28:48;;;;;;;37.15;30.33;;;9.50;99.90;;;;;;5099682;28;20413;-72
2021/10/25 09:31:26;;;;;;;36.45;28.55;;;9.50;99.90;;;;;;5104397;28;20052;-72
2021/10/25 09:33:58;;;;;;;38.03;29.63;;;9.50;99.90;;;;;;5086337;27;20104;-74
2021/10/25 09:36:36;;;;;;;31.75;25.77;;;9.60;99.90;;;;;;5087049;27;20062;-71
2021/10/25 09:39:18;;;;;;;34.92;25.23;;;9.60;99.90;;;;;;5103693;28;20054;-71
2021/10/25 09:50:06;;;;;;;31.52;25.65;;;9.60;99.90;;;;;;5137851;27;20051;-71
2021/10/25 09:52:37;;;;;;;34.35;26.92;;;9.60;99.90;;;;;;5104018;28;20055;-71
2021/10/25 09:55:15;;;;;;;28.45;23.13;;;9.60;99.90;;;;;;5108821;28;20219;-71
2021/10/25 10:00:09;;;;;;;31.08;25.08;;;9.70;99.90;;;;;;5108083;28;20047;-71
2021/10/25 10:02:36;;;;;;;29.13;23.92;;;9.70;99.90;;;;;;5106942;28;20075;-70
2021/10/25 10:05:05;;;;;;;36.85;27.55;;;9.70;99.90;;;;;;5108209;28;20046;-71
2021/10/25 10:07:35;;;;;;;32.50;26.50;;;9.70;99.90;;;;;;5108565;28;20091;-71
2021/10/25 10:10:05;;;;;;;32.17;28.15;;;9.80;99.90;;;;;;5090829;28;20315;-71
2021/10/25 10:12:32;;;;;;;32.88;25.20;;;9.90;99.90;;;;;;5091520;28;20043;-71
2021/10/25 10:14:59;;;;;;;34.67;26.38;;;9.90;99.90;;;;;;5108501;28;20039;-71
2021/10/25 10:17:42;;;;;;;38.28;29.60;;;9.90;99.90;;;;;;5091145;28;20070;-71
2021/10/25 10:20:12;;;;;;;33.55;27.27;;;10.00;99.90;;;;;;5096220;28;20423;-71
2021/10/25 10:22:48;;;;;;;32.38;24.85;;;10.00;99.90;;;;;;5128363;27;20457;-70
2021/10/25 10:25:36;;;;;;;36.03;28.85;;;10.00;99.90;;;;;;5093516;28;20047;-70
2021/10/25 10:28:09;;;;;;;37.70;28.48;;;10.00;99.90;;;;;;5120809;28;20047;-70
2021/10/25 10:30:49;;;;;;;33.28;27.42;;;10.00;99.90;;;;;;5135115;27;20082;-70
2021/10/25 10:33:15;;;;;;;31.05;25.38;;;10.00;99.90;;;;;;5136646;27;20155;-71
2021/10/25 10:35:43;;;;;;;31.48;25.95;;;10.00;99.90;;;;;;5107503;28;20081;-71
2021/10/25 10:38:09;;;;;;;32.25;25.02;;;10.00;99.90;;;;;;5127322;27;20036;-71
2021/10/25 10:40:41;;;;;;;35.67;27.38;;;10.10;99.90;;;;;;5112629;28;20592;-71
2021/10/25 10:43:26;;;;;;;27.85;24.50;;;10.00;99.90;;;;;;5109662;28;20040;-70
2021/10/25 10:46:17;;;;;;;37.03;26.92;;;10.00;99.90;;;;;;5098068;28;20062;-70
2021/10/25 10:48:45;;;;;;;27.30;23.90;;;10.00;99.90;;;;;;5119540;27;20127;-70
2021/10/25 10:51:13;;;;;;;34.58;26.73;;;10.00;99.90;;;;;;5111673;27;20054;-70
2021/10/25 10:53:52;;;;;;;29.52;25.15;;;10.00;99.90;;;;;;5126493;27;20035;-70
2021/10/25 10:56:29;;;;;;;33.35;25.88;;;10.00;99.90;;;;;;5094829;27;20051;-70
2021/10/25 11:01:30;;;;;;;35.72;27.73;;;10.00;99.90;;;;;;5121074;27;20139;-70
2021/10/25 11:03:57;;;;;;;38.35;29.58;;;10.00;99.90;;;;;;5085549;28;20047;-70
2021/10/25 11:06:29;;;;;;;38.78;29.52;;;10.00;99.90;;;;;;5093730;28;20036;-70
2021/10/25 11:08:56;;;;;;;34.58;27.80;;;10.00;99.90;;;;;;5094591;28;20048;-70
2021/10/25 11:11:23;;;;;;;36.85;29.17;;;10.00;99.90;;;;;;5079638;28;20052;-70
2021/10/25 11:14:06;;;;;;;30.33;26.02;;;10.00;99.90;;;;;;5078922;28;20131;-70
2021/10/25 11:19:06;;;;;;;35.00;27.35;;;10.10;99.90;;;;;;5088858;28;20406;-70
2021/10/25 11:21:40;;;;;;;36.08;30.20;;;10.10;99.90;;;;;;5096309;28;20063;-71
2021/10/25 11:24:10;;;;;;;42.47;30.88;;;10.10;99.90;;;;;;5088345;28;20665;-70
2021/10/25 11:26:40;;;;;;;40.20;31.65;;;10.10;99.90;;;;;;5095631;28;20052;-70
2021/10/25 11:29:09;;;;;;;38.97;30.05;;;10.20;99.90;;;;;;5104219;28;20066;-70
2021/10/25 11:31:42;;;;;;;38.83;29.67;;;10.20;99.90;;;;;;5082503;28;20122;-71
2021/10/25 11:34:11;;;;;;;47.90;33.35;;;10.10;99.90;;;;;;5072338;28;20084;-70
2021/10/25 11:36:48;;;;;;;39.25;31.60;;;10.20;99.90;;;;;;5078533;28;20070;-70
2021/10/25 11:39:40;;;;;;;38.70;30.00;;;10.20;99.90;;;;;;5087454;28;20048;-69
2021/10/25 11:42:08;;;;;;;41.53;31.88;;;10.20;99.90;;;;;;5097460;28;20319;-69
2021/10/25 11:44:34;;;;;;;39.47;27.98;;;10.30;99.90;;;;;;5078360;28;20093;-70
2021/10/25 11:47:00;;;;;;;43.15;32.30;;;10.30;99.90;;;;;;5077601;28;20715;-70
2021/10/25 11:49:27;;;;;;;41.35;30.60;;;10.30;99.90;;;;;;5054697;28;20089;-70
2021/10/25 11:51:55;;;;;;;38.15;30.08;;;10.40;99.90;;;;;;5091481;28;20047;-70
2021/10/25 11:54:21;;;;;;;35.90;28.95;;;10.40;99.90;;;;;;5087655;28;20048;-70
2021/10/25 11:56:53;;;;;;;39.58;30.08;;;10.40;99.90;;;;;;5069298;28;20959;-69
2021/10/25 11:59:20;;;;;;;39.00;30.00;;;10.40;99.90;;;;;;5071862;28;20052;-70
2021/10/25 12:01:47;;;;;;;40.90;31.70;;;10.40;99.90;;;;;;5091689;28;20051;-70
2021/10/25 12:04:14;;;;;;;45.40;32.20;;;10.40;99.90;;;;;;5092707;28;20215;-69
2021/10/25 12:06:40;;;;;;;40.30;31.02;;;10.40;99.90;;;;;;5092288;28;20341;-71
2021/10/25 12:09:09;;;;;;;45.10;33.55;;;10.40;99.90;;;;;;5098500;28;20047;-72
2021/10/25 12:14:09;;;;;;;41.60;33.08;;;10.40;99.90;;;;;;5092676;28;20380;-71
2021/10/25 12:16:34;;;;;;;43.10;33.35;;;10.40;99.90;;;;;;5092622;28;20059;-71
2021/10/25 12:19:01;;;;;;;44.03;31.83;;;10.40;99.90;;;;;;5075771;28;20068;-71
2021/10/25 12:21:35;;;;;;;51.15;34.70;;;10.50;99.90;;;;;;5064852;28;20502;-71
2021/10/25 12:24:07;;;;;;;38.97;31.50;;;10.50;99.90;;;;;;5077808;28;20527;-71
2021/10/25 12:26:33;;;;;;;42.28;31.25;;;10.50;99.90;;;;;;5069850;28;20048;-71
2021/10/25 12:28:59;;;;;;;35.45;29.17;;;10.50;99.90;;;;;;5090721;28;20051;-72
2021/10/25 12:31:27;;;;;;;34.72;30.05;;;10.50;99.90;;;;;;5108630;28;20405;-72
2021/10/25 12:34:04;;;;;;;40.42;31.33;;;10.50;99.90;;;;;;5108141;28;20044;-70
2021/10/25 12:36:38;;;;;;;37.65;29.77;;;10.50;99.90;;;;;;5109061;28;20134;-70
2021/10/25 12:39:13;;;;;;;33.08;27.80;;;10.60;99.90;;;;;;5108414;28;20418;-70
2021/10/25 12:41:56;;;;;;;42.10;28.60;;;10.60;99.90;;;;;;5108707;28;20101;-70
2021/10/25 12:44:27;;;;;;;38.75;31.20;;;10.60;99.90;;;;;;5087676;28;20074;-69
2021/10/25 12:47:11;;;;;;;39.35;29.60;;;10.60;99.90;;;;;;5088054;28;20055;-70
2021/10/25 12:49:37;;;;;;;36.17;29.80;;;10.70;99.90;;;;;;5090882;28;20491;-72
2021/10/25 12:52:05;;;;;;;37.40;27.98;;;10.70;99.90;;;;;;5108115;28;20055;-71
2021/10/25 12:54:39;;;;;;;36.67;27.10;;;10.80;99.90;;;;;;5108034;28;20100;-72
2021/10/25 12:57:23;;;;;;;31.48;26.60;;;10.80;99.90;;;;;;5107502;28;20045;-69
2021/10/25 13:00:21;;;;;;;31.45;25.08;;;10.90;99.90;;;;;;5090828;28;20506;-70
2021/10/25 13:02:52;;;;;;;31.10;27.00;;;10.90;99.90;;;;;;5032332;27;20051;-69
2021/10/25 13:05:26;;;;;;;28.13;24.77;;;10.90;99.90;;;;;;5127291;27;20591;-70
2021/10/25 13:07:55;;;;;;;28.42;24.88;;;11.00;99.90;;;;;;5145281;27;20673;-70
2021/10/25 13:10:26;;;;;;;30.50;24.63;;;11.00;99.90;;;;;;5144964;27;20405;-70
2021/10/25 13:12:54;;;;;;;27.45;22.92;;;11.00;99.90;;;;;;5137680;27;20035;-70
2021/10/25 13:15:23;;;;;;;30.88;23.52;;;11.00;99.90;;;;;;5100884;27;20164;-70
2021/10/25 13:17:53;;;;;;;28.75;23.00;;;11.10;99.90;;;;;;5075981;27;20137;-70
2021/10/25 13:20:21;;;;;;;29.30;22.88;;;11.20;99.90;;;;;;5092563;28;20504;-70
2021/10/25 13:22:52;;;;;;;28.38;23.40;;;11.20;99.90;;;;;;5106765;27;20054;-70
2021/10/25 13:25:19;;;;;;;26.50;23.30;;;11.20;99.90;;;;;;5090035;28;20051;-70
2021/10/25 13:27:46;;;;;;;28.05;24.15;;;11.30;99.90;;;;;;5093583;27;20047;-69
2021/10/25 13:30:13;;;;;;;29.02;23.17;;;11.20;99.90;;;;;;5084661;27;20039;-69
2021/10/25 13:32:40;;;;;;;28.10;22.58;;;11.30;99.90;;;;;;5133175;27;20035;-70
2021/10/25 13:35:06;;;;;;;26.88;22.83;;;11.30;99.90;;;;;;5124847;27;20627;-69
2021/10/25 13:37:33;;;;;;;27.67;22.40;;;11.30;99.90;;;;;;5145034;27;20039;-70
2021/10/25 13:39:58;;;;;;;31.25;24.85;;;11.30;99.90;;;;;;5135623;27;20458;-72
2021/10/25 13:42:25;;;;;;;28.30;23.48;;;11.30;99.90;;;;;;5099777;28;20100;-69
2021/10/25 13:44:51;;;;;;;27.80;23.48;;;11.30;99.90;;;;;;5110940;28;20083;-70
2021/10/25 13:47:18;;;;;;;28.10;22.60;;;11.30;99.90;;;;;;5105678;28;20509;-70
2021/10/25 13:49:44;;;;;;;29.05;22.77;;;11.30;99.90;;;;;;5110035;28;20050;-71
2021/10/25 13:52:11;;;;;;;27.73;23.23;;;11.30;99.90;;;;;;5092943;28;20050;-71
2021/10/25 13:54:37;;;;;;;29.95;23.30;;;11.30;99.90;;;;;;5092847;28;20059;-72
2021/10/25 13:57:07;;;;;;;28.88;23.70;;;11.30;99.90;;;;;;5086894;28;20034;-70
2021/10/25 13:59:35;;;;;;;30.52;23.17;;;11.30;99.90;;;;;;5081597;28;20541;-71
2021/10/25 14:02:05;;;;;;;30.27;21.95;;;11.30;99.90;;;;;;5073659;28;20148;-71
2021/10/25 14:04:30;;;;;;;27.85;23.00;;;11.30;99.90;;;;;;5110408;28;20071;-71
2021/10/25 14:06:56;;;;;;;30.25;22.90;;;11.30;99.90;;;;;;5136799;27;20077;-71
2021/10/25 14:09:23;;;;;;;27.67;22.73;;;11.30;99.90;;;;;;5094326;28;20054;-71
2021/10/25 14:11:52;;;;;;;31.27;24.45;;;11.30;99.90;;;;;;5099269;28;20046;-70
2021/10/25 14:14:19;;;;;;;28.33;22.27;;;11.30;99.90;;;;;;5072094;28;20587;-71
2021/10/25 14:16:54;;;;;;;33.60;25.05;;;11.30;99.90;;;;;;5073032;28;20056;-71
2021/10/25 14:19:24;;;;;;;30.42;23.25;;;11.30;99.90;;;;;;5072945;28;20052;-72
2021/10/25 14:21:50;;;;;;;29.88;25.77;;;11.30;99.90;;;;;;5138885;27;20039;-71
2021/10/25 14:24:17;;;;;;;22.63;20.15;;;11.30;99.90;;;;;;5113934;27;20114;-71
2021/10/25 14:26:43;;;;;;;26.20;21.45;;;11.30;99.90;;;;;;5100258;27;20104;-71
2021/10/25 14:29:09;;;;;;;29.92;24.45;;;11.40;99.90;;;;;;5114495;27;20031;-71
2021/10/25 14:31:38;;;;;;;27.17;21.85;;;11.40;99.90;;;;;;5098306;28;20046;-71